sensor_id;sensor_type;location;lat;lon;timestamp;pressure;altitude;pressure_sealevel;temperature
31921;BMP280;66485;52.128;4.436;2023-02-28T00:00:10;103302.81;;;16.77
31921;BMP280;66485;52.128;4.436;2023-02-28T00:02:37;103302.81;;;16.77
31921;BMP280;66485;52.128;4.436;2023-02-28T00:05:03;103307.56;;;16.68
31921;BMP280;66485;52.128;4.436;2023-02-28T00:07:29;103307.56;;;16.68
31921;BMP280;66485;52.128;4.436;2023-02-28T00:09:55;103304.41;;;16.66
31921;BMP280;66485;52.128;4.436;2023-02-28T00:12:21;103307.47;;;16.64
31921;BMP280;66485;52.128;4.436;2023-02-28T00:14:46;103307.47;;;16.64
31921;BMP280;66485;52.128;4.436;2023-02-28T00:17:11;103316.59;;;16.72
31921;BMP280;66485;52.128;4.436;2023-02-28T00:19:37;103310.75;;;16.70
31921;BMP280;66485;52.128;4.436;2023-02-28T00:22:02;103308.56;;;16.76
31921;BMP280;66485;52.128;4.436;2023-02-28T00:24:27;103315.22;;;16.78
31921;BMP280;66485;52.128;4.436;2023-02-28T00:26:52;103313.19;;;16.75
31921;BMP280;66485;52.128;4.436;2023-02-28T00:29:18;103309.03;;;16.78
31921;BMP280;66485;52.128;4.436;2023-02-28T00:31:43;103307.56;;;16.80
31921;BMP280;66485;52.128;4.436;2023-02-28T00:34:08;103305.19;;;16.79
31921;BMP280;66485;52.128;4.436;2023-02-28T00:36:34;103312.97;;;16.80
31921;BMP280;66485;52.128;4.436;2023-02-28T00:38:59;103309.81;;;16.78
31921;BMP280;66485;52.128;4.436;2023-02-28T00:41:24;103309.81;;;16.78
31921;BMP280;66485;52.128;4.436;2023-02-28T00:43:49;103309.47;;;16.80
31921;BMP280;66485;52.128;4.436;2023-02-28T00:46:15;103309.47;;;16.80
31921;BMP280;66485;52.128;4.436;2023-02-28T00:48:40;103302.47;;;16.79
31921;BMP280;66485;52.128;4.436;2023-02-28T00:51:06;103304.41;;;16.78
31921;BMP280;66485;52.128;4.436;2023-02-28T00:53:31;103304.41;;;16.78
31921;BMP280;66485;52.128;4.436;2023-02-28T00:55:57;103298.44;;;16.73
31921;BMP280;66485;52.128;4.436;2023-02-28T00:58:23;103305.78;;;16.72
31921;BMP280;66485;52.128;4.436;2023-02-28T01:00:49;103308.03;;;16.70
31921;BMP280;66485;52.128;4.436;2023-02-28T01:03:16;103302.84;;;16.65
31921;BMP280;66485;52.128;4.436;2023-02-28T01:05:41;103303.06;;;16.72
31921;BMP280;66485;52.128;4.436;2023-02-28T01:08:07;103306.66;;;16.76
31921;BMP280;66485;52.128;4.436;2023-02-28T01:10:32;103306.66;;;16.76
31921;BMP280;66485;52.128;4.436;2023-02-28T01:12:57;103311.41;;;16.79
31921;BMP280;66485;52.128;4.436;2023-02-28T01:15:23;103311.84;;;16.81
31921;BMP280;66485;52.128;4.436;2023-02-28T01:17:48;103314.22;;;16.83
31921;BMP280;66485;52.128;4.436;2023-02-28T01:20:14;103314.22;;;16.83
31921;BMP280;66485;52.128;4.436;2023-02-28T01:22:39;103302.94;;;16.81
31921;BMP280;66485;52.128;4.436;2023-02-28T01:25:05;103307.56;;;16.80
31921;BMP280;66485;52.128;4.436;2023-02-28T01:27:30;103314.13;;;16.79
31921;BMP280;66485;52.128;4.436;2023-02-28T01:29:55;103313.50;;;16.86
31921;BMP280;66485;52.128;4.436;2023-02-28T01:32:21;103311.25;;;16.88
31921;BMP280;66485;52.128;4.436;2023-02-28T01:34:46;103312.03;;;16.88
31921;BMP280;66485;52.128;4.436;2023-02-28T01:37:11;103309.00;;;16.90
31921;BMP280;66485;52.128;4.436;2023-02-28T01:39:37;103300.88;;;16.90
31921;BMP280;66485;52.128;4.436;2023-02-28T01:42:02;103294.34;;;16.91
31921;BMP280;66485;52.128;4.436;2023-02-28T01:47:38;103288.91;;;16.91
31921;BMP280;66485;52.128;4.436;2023-02-28T01:50:09;103296.72;;;16.92
31921;BMP280;66485;52.128;4.436;2023-02-28T01:52:35;103283.97;;;16.93
31921;BMP280;66485;52.128;4.436;2023-02-28T01:55:02;103283.97;;;16.93
31921;BMP280;66485;52.128;4.436;2023-02-28T01:57:34;103283.16;;;16.92
31921;BMP280;66485;52.128;4.436;2023-02-28T02:00:24;103283.16;;;16.92
31921;BMP280;66485;52.128;4.436;2023-02-28T02:02:54;103278.53;;;16.93
31921;BMP280;66485;52.128;4.436;2023-02-28T02:05:23;103280.91;;;16.94
31921;BMP280;66485;52.128;4.436;2023-02-28T02:07:51;103279.34;;;16.93
31921;BMP280;66485;52.128;4.436;2023-02-28T02:10:19;103279.34;;;16.93
31921;BMP280;66485;52.128;4.436;2023-02-28T02:18:51;103283.50;;;16.91
31921;BMP280;66485;52.128;4.436;2023-02-28T02:34:51;103266.22;;;16.95
31921;BMP280;66485;52.128;4.436;2023-02-28T02:40:04;103267.38;;;16.94
31921;BMP280;66485;52.128;4.436;2023-02-28T02:42:53;103267.78;;;16.96
31921;BMP280;66485;52.128;4.436;2023-02-28T02:47:48;103271.28;;;16.97
31921;BMP280;66485;52.128;4.436;2023-02-28T02:50:20;103271.28;;;16.97
31921;BMP280;66485;52.128;4.436;2023-02-28T02:52:51;103265.09;;;16.96
31921;BMP280;66485;52.128;4.436;2023-02-28T02:55:17;103265.53;;;16.98
31921;BMP280;66485;52.128;4.436;2023-02-28T02:57:51;103263.88;;;16.94
31921;BMP280;66485;52.128;4.436;2023-02-28T03:00:23;103261.16;;;16.94
31921;BMP280;66485;52.128;4.436;2023-02-28T03:02:52;103261.16;;;16.94
31921;BMP280;66485;52.128;4.436;2023-02-28T03:05:23;103259.94;;;16.91
31921;BMP280;66485;52.128;4.436;2023-02-28T03:07:48;103268.84;;;16.92
31921;BMP280;66485;52.128;4.436;2023-02-28T03:10:52;103268.84;;;16.92
31921;BMP280;66485;52.128;4.436;2023-02-28T03:24:54;103265.88;;;16.97
31921;BMP280;66485;52.128;4.436;2023-02-28T03:27:32;103265.09;;;16.96
31921;BMP280;66485;52.128;4.436;2023-02-28T03:30:03;103265.09;;;16.96
31921;BMP280;66485;52.128;4.436;2023-02-28T03:32:37;103258.53;;;16.97
31921;BMP280;66485;52.128;4.436;2023-02-28T03:35:12;103258.53;;;16.97
31921;BMP280;66485;52.128;4.436;2023-02-28T03:37:41;103248.84;;;16.96
31921;BMP280;66485;52.128;4.436;2023-02-28T03:40:17;103248.84;;;16.96
31921;BMP280;66485;52.128;4.436;2023-02-28T03:42:46;103248.41;;;16.94
31921;BMP280;66485;52.128;4.436;2023-02-28T03:45:17;103250.88;;;16.99
31921;BMP280;66485;52.128;4.436;2023-02-28T03:50:19;103254.81;;;17.02
31921;BMP280;66485;52.128;4.436;2023-02-28T03:55:28;103256.06;;;17.05
31921;BMP280;66485;52.128;4.436;2023-02-28T04:00:55;103256.84;;;17.05
31921;BMP280;66485;52.128;4.436;2023-02-28T04:03:22;103256.47;;;17.07
31921;BMP280;66485;52.128;4.436;2023-02-28T04:05:53;103249.91;;;17.08
31921;BMP280;66485;52.128;4.436;2023-02-28T04:08:21;103255.34;;;17.08
31921;BMP280;66485;52.128;4.436;2023-02-28T04:10:52;103257.97;;;17.04
31921;BMP280;66485;52.128;4.436;2023-02-28T04:13:19;103264.59;;;17.07
31921;BMP280;66485;52.128;4.436;2023-02-28T04:15:44;103264.59;;;17.07
31921;BMP280;66485;52.128;4.436;2023-02-28T04:18:09;103276.13;;;17.03
31921;BMP280;66485;52.128;4.436;2023-02-28T04:20:34;103276.13;;;17.03
31921;BMP280;66485;52.128;4.436;2023-02-28T04:23:00;103263.72;;;17.02
31921;BMP280;66485;52.128;4.436;2023-02-28T04:25:25;103271.06;;;17.02
31921;BMP280;66485;52.128;4.436;2023-02-28T04:27:50;103279.06;;;16.98
31921;BMP280;66485;52.128;4.436;2023-02-28T04:30:16;103279.06;;;16.98
31921;BMP280;66485;52.128;4.436;2023-02-28T04:32:41;103269.81;;;16.99
31921;BMP280;66485;52.128;4.436;2023-02-28T04:35:07;103269.03;;;16.99
31921;BMP280;66485;52.128;4.436;2023-02-28T04:37:32;103266.66;;;16.97
31921;BMP280;66485;52.128;4.436;2023-02-28T04:40:00;103268.25;;;16.98
31921;BMP280;66485;52.128;4.436;2023-02-28T04:42:25;103270.28;;;17.01
31921;BMP280;66485;52.128;4.436;2023-02-28T04:44:51;103274.06;;;17.00
31921;BMP280;66485;52.128;4.436;2023-02-28T04:47:16;103274.56;;;17.02
31921;BMP280;66485;52.128;4.436;2023-02-28T04:49:42;103266.09;;;17.04
31921;BMP280;66485;52.128;4.436;2023-02-28T04:52:07;103273.84;;;17.06
31921;BMP280;66485;52.128;4.436;2023-02-28T04:54:35;103273.84;;;17.06
31921;BMP280;66485;52.128;4.436;2023-02-28T04:57:00;103280.06;;;17.06
31921;BMP280;66485;52.128;4.436;2023-02-28T04:59:26;103280.06;;;17.06
31921;BMP280;66485;52.128;4.436;2023-02-28T05:01:52;103273.84;;;17.06
31921;BMP280;66485;52.128;4.436;2023-02-28T05:04:17;103273.84;;;17.06
31921;BMP280;66485;52.128;4.436;2023-02-28T05:06:43;103264.59;;;17.07
31921;BMP280;66485;52.128;4.436;2023-02-28T05:09:09;103260.75;;;17.08
31921;BMP280;66485;52.128;4.436;2023-02-28T05:11:36;103266.44;;;17.02
31921;BMP280;66485;52.128;4.436;2023-02-28T05:14:06;103266.44;;;17.02
31921;BMP280;66485;52.128;4.436;2023-02-28T05:16:32;103261.00;;;17.02
31921;BMP280;66485;52.128;4.436;2023-02-28T05:18:57;103261.00;;;17.02
31921;BMP280;66485;52.128;4.436;2023-02-28T05:23:51;103262.16;;;17.01
31921;BMP280;66485;52.128;4.436;2023-02-28T05:26:16;103256.97;;;16.96
31921;BMP280;66485;52.128;4.436;2023-02-28T05:28:41;103259.66;;;16.96
31921;BMP280;66485;52.128;4.436;2023-02-28T05:31:10;103259.00;;;16.99
31921;BMP280;66485;52.128;4.436;2023-02-28T05:33:35;103267.13;;;16.99
31921;BMP280;66485;52.128;4.436;2023-02-28T05:36:01;103260.91;;;16.99
31921;BMP280;66485;52.128;4.436;2023-02-28T05:38:26;103261.34;;;17.01
31921;BMP280;66485;52.128;4.436;2023-02-28T05:40:52;103270.28;;;17.01
31921;BMP280;66485;52.128;4.436;2023-02-28T05:43:18;103270.28;;;17.01
31921;BMP280;66485;52.128;4.436;2023-02-28T05:45:44;103266.88;;;17.05
31921;BMP280;66485;52.128;4.436;2023-02-28T05:48:10;103260.69;;;17.04
31921;BMP280;66485;52.128;4.436;2023-02-28T05:50:35;103268.44;;;17.06
31921;BMP280;66485;52.128;4.436;2023-02-28T05:53:01;103269.22;;;17.06
31921;BMP280;66485;52.128;4.436;2023-02-28T05:55:26;103272.97;;;17.01
31921;BMP280;66485;52.128;4.436;2023-02-28T05:57:52;103272.97;;;17.01
31921;BMP280;66485;52.128;4.436;2023-02-28T06:00:17;103267.91;;;17.00
31921;BMP280;66485;52.128;4.436;2023-02-28T06:02:43;103273.78;;;17.02
31921;BMP280;66485;52.128;4.436;2023-02-28T06:05:16;103265.66;;;17.02
31921;BMP280;66485;52.128;4.436;2023-02-28T06:07:42;103265.66;;;17.02
31921;BMP280;66485;52.128;4.436;2023-02-28T06:10:09;103277.72;;;17.05
31921;BMP280;66485;52.128;4.436;2023-02-28T06:12:34;103277.72;;;17.05
31921;BMP280;66485;52.128;4.436;2023-02-28T06:14:59;103272.72;;;17.07
31921;BMP280;66485;52.128;4.436;2023-02-28T06:17:25;103278.59;;;17.09
31921;BMP280;66485;52.128;4.436;2023-02-28T06:19:50;103279.72;;;17.08
31921;BMP280;66485;52.128;4.436;2023-02-28T06:22:15;103274.75;;;17.10
31921;BMP280;66485;52.128;4.436;2023-02-28T06:24:41;103264.66;;;17.10
31921;BMP280;66485;52.128;4.436;2023-02-28T06:27:06;103264.38;;;17.12
31921;BMP280;66485;52.128;4.436;2023-02-28T06:29:33;103273.16;;;17.09
31921;BMP280;66485;52.128;4.436;2023-02-28T06:31:58;103278.22;;;17.10
31921;BMP280;66485;52.128;4.436;2023-02-28T06:34:23;103274.75;;;17.10
31921;BMP280;66485;52.128;4.436;2023-02-28T06:36:51;103274.75;;;17.10
31921;BMP280;66485;52.128;4.436;2023-02-28T06:39:17;103276.66;;;17.09
31921;BMP280;66485;52.128;4.436;2023-02-28T06:41:42;103276.66;;;17.09
31921;BMP280;66485;52.128;4.436;2023-02-28T06:44:12;103278.94;;;17.07
31921;BMP280;66485;52.128;4.436;2023-02-28T06:46:40;103278.94;;;17.07
31921;BMP280;66485;52.128;4.436;2023-02-28T06:49:06;103278.94;;;17.07
31921;BMP280;66485;52.128;4.436;2023-02-28T06:51:34;103278.94;;;17.07
31921;BMP280;66485;52.128;4.436;2023-02-28T06:53:59;103273.78;;;17.02
31921;BMP280;66485;52.128;4.436;2023-02-28T06:56:24;103273.78;;;17.02
31921;BMP280;66485;52.128;4.436;2023-02-28T06:58:50;103284.91;;;17.00
31921;BMP280;66485;52.128;4.436;2023-02-28T07:01:18;103284.91;;;17.00
31921;BMP280;66485;52.128;4.436;2023-02-28T07:03:44;103280.91;;;16.94
31921;BMP280;66485;52.128;4.436;2023-02-28T07:06:09;103292.38;;;17.03
31921;BMP280;66485;52.128;4.436;2023-02-28T07:08:35;103300.94;;;17.06
31921;BMP280;66485;52.128;4.436;2023-02-28T07:11:01;103300.94;;;17.06
31921;BMP280;66485;52.128;4.436;2023-02-28T07:13:27;103298.66;;;17.08
31921;BMP280;66485;52.128;4.436;2023-02-28T07:15:56;103302.16;;;17.08
31921;BMP280;66485;52.128;4.436;2023-02-28T07:18:22;103307.59;;;17.08
31921;BMP280;66485;52.128;4.436;2023-02-28T07:20:48;103307.59;;;17.08
31921;BMP280;66485;52.128;4.436;2023-02-28T07:23:13;103310.41;;;17.12
31921;BMP280;66485;52.128;4.436;2023-02-28T07:25:38;103319.63;;;17.11
31921;BMP280;66485;52.128;4.436;2023-02-28T07:28:04;103325.03;;;17.11
31921;BMP280;66485;52.128;4.436;2023-02-28T07:30:29;103325.03;;;17.11
31921;BMP280;66485;52.128;4.436;2023-02-28T07:32:55;103332.88;;;17.12
31921;BMP280;66485;52.128;4.436;2023-02-28T07:35:21;103325.84;;;17.11
31921;BMP280;66485;52.128;4.436;2023-02-28T07:37:47;103326.22;;;17.10
31921;BMP280;66485;52.128;4.436;2023-02-28T07:40:12;103315.72;;;17.08
31921;BMP280;66485;52.128;4.436;2023-02-28T07:42:40;103315.72;;;17.08
31921;BMP280;66485;52.128;4.436;2023-02-28T07:45:06;103326.09;;;17.06
31921;BMP280;66485;52.128;4.436;2023-02-28T07:47:32;103325.91;;;16.99
31921;BMP280;66485;52.128;4.436;2023-02-28T07:49:57;103326.69;;;16.99
31921;BMP280;66485;52.128;4.436;2023-02-28T07:52:23;103326.69;;;16.99
31921;BMP280;66485;52.128;4.436;2023-02-28T07:54:52;103334.34;;;16.97
31921;BMP280;66485;52.128;4.436;2023-02-28T07:57:17;103337.06;;;16.97
31921;BMP280;66485;52.128;4.436;2023-02-28T07:59:43;103325.53;;;17.00
31921;BMP280;66485;52.128;4.436;2023-02-28T08:02:13;103329.84;;;17.01
31921;BMP280;66485;52.128;4.436;2023-02-28T08:04:38;103325.22;;;17.02
31921;BMP280;66485;52.128;4.436;2023-02-28T08:07:04;103323.75;;;17.05
31921;BMP280;66485;52.128;4.436;2023-02-28T08:09:29;103331.50;;;17.06
31921;BMP280;66485;52.128;4.436;2023-02-28T08:11:55;103333.88;;;17.08
31921;BMP280;66485;52.128;4.436;2023-02-28T08:14:20;103333.88;;;17.08
31921;BMP280;66485;52.128;4.436;2023-02-28T08:16:45;103336.72;;;16.99
31921;BMP280;66485;52.128;4.436;2023-02-28T08:19:11;103332.91;;;17.00
31921;BMP280;66485;52.128;4.436;2023-02-28T08:21:36;103332.91;;;17.00
31921;BMP280;66485;52.128;4.436;2023-02-28T08:24:01;103337.19;;;17.01
31921;BMP280;66485;52.128;4.436;2023-02-28T08:26:27;103339.06;;;17.00
31921;BMP280;66485;52.128;4.436;2023-02-28T08:28:52;103342.25;;;17.02
31921;BMP280;66485;52.128;4.436;2023-02-28T08:31:18;103334.47;;;17.01
31921;BMP280;66485;52.128;4.436;2023-02-28T08:33:43;103334.59;;;17.05
31921;BMP280;66485;52.128;4.436;2023-02-28T08:36:10;103334.59;;;17.05
31921;BMP280;66485;52.128;4.436;2023-02-28T08:38:36;103337.59;;;17.15
31921;BMP280;66485;52.128;4.436;2023-02-28T08:41:05;103335.88;;;17.23
31921;BMP280;66485;52.128;4.436;2023-02-28T08:43:34;103332.66;;;17.33
31921;BMP280;66485;52.128;4.436;2023-02-28T08:46:00;103324.47;;;17.45
31921;BMP280;66485;52.128;4.436;2023-02-28T08:48:29;103324.47;;;17.45
31921;BMP280;66485;52.128;4.436;2023-02-28T08:51:14;103339.91;;;17.72
31921;BMP280;66485;52.128;4.436;2023-02-28T08:53:41;103339.91;;;17.72
31921;BMP280;66485;52.128;4.436;2023-02-28T08:56:11;103323.56;;;17.85
31921;BMP280;66485;52.128;4.436;2023-02-28T08:58:38;103325.28;;;18.08
31921;BMP280;66485;52.128;4.436;2023-02-28T09:01:12;103339.03;;;18.15
31921;BMP280;66485;52.128;4.436;2023-02-28T09:03:38;103332.59;;;18.20
31921;BMP280;66485;52.128;4.436;2023-02-28T09:06:03;103335.47;;;18.27
31921;BMP280;66485;52.128;4.436;2023-02-28T09:08:30;103335.47;;;18.27
31921;BMP280;66485;52.128;4.436;2023-02-28T09:10:57;103308.13;;;18.36
31921;BMP280;66485;52.128;4.436;2023-02-28T09:13:24;103321.31;;;18.37
31921;BMP280;66485;52.128;4.436;2023-02-28T09:15:49;103324.47;;;18.39
31921;BMP280;66485;52.128;4.436;2023-02-28T09:18:15;103322.91;;;18.38
31921;BMP280;66485;52.128;4.436;2023-02-28T09:20:42;103328.41;;;18.42
31921;BMP280;66485;52.128;4.436;2023-02-28T09:23:08;103328.41;;;18.42
31921;BMP280;66485;52.128;4.436;2023-02-28T09:25:34;103307.94;;;18.44
31921;BMP280;66485;52.128;4.436;2023-02-28T09:28:00;103307.94;;;18.44
31921;BMP280;66485;52.128;4.436;2023-02-28T09:30:26;103316.44;;;18.43
31921;BMP280;66485;52.128;4.436;2023-02-28T09:32:52;103311.44;;;18.45
31921;BMP280;66485;52.128;4.436;2023-02-28T09:35:22;103315.34;;;18.47
31921;BMP280;66485;52.128;4.436;2023-02-28T09:37:51;103307.59;;;18.46
31921;BMP280;66485;52.128;4.436;2023-02-28T09:40:20;103318.84;;;18.48
31921;BMP280;66485;52.128;4.436;2023-02-28T09:42:48;103316.13;;;18.48
31921;BMP280;66485;52.128;4.436;2023-02-28T09:47:50;103334.72;;;18.46
31921;BMP280;66485;52.128;4.436;2023-02-28T09:52:52;103323.09;;;18.45
31921;BMP280;66485;52.128;4.436;2023-02-28T09:57:53;103334.97;;;18.41
31921;BMP280;66485;52.128;4.436;2023-02-28T10:00:25;103332.19;;;18.37
31921;BMP280;66485;52.128;4.436;2023-02-28T10:06:10;103330.63;;;18.36
31921;BMP280;66485;52.128;4.436;2023-02-28T10:08:38;103322.06;;;18.34
31921;BMP280;66485;52.128;4.436;2023-02-28T10:11:09;103325.63;;;18.38
31921;BMP280;66485;52.128;4.436;2023-02-28T10:13:48;103325.63;;;18.38
31921;BMP280;66485;52.128;4.436;2023-02-28T10:16:45;103330.44;;;18.45
31921;BMP280;66485;52.128;4.436;2023-02-28T10:21:49;103329.38;;;18.49
31921;BMP280;66485;52.128;4.436;2023-02-28T10:24:40;103330.25;;;18.53
31921;BMP280;66485;52.128;4.436;2023-02-28T10:27:20;103332.16;;;18.53
31921;BMP280;66485;52.128;4.436;2023-02-28T10:29:54;103339.53;;;18.52
31921;BMP280;66485;52.128;4.436;2023-02-28T10:32:26;103349.31;;;18.57
31921;BMP280;66485;52.128;4.436;2023-02-28T10:35:07;103336.97;;;18.60
31921;BMP280;66485;52.128;4.436;2023-02-28T10:37:43;103333.31;;;18.52
31921;BMP280;66485;52.128;4.436;2023-02-28T10:43:04;103342.78;;;18.42
31921;BMP280;66485;52.128;4.436;2023-02-28T10:45:34;103342.78;;;18.42
31921;BMP280;66485;52.128;4.436;2023-02-28T10:50:44;103338.50;;;18.41
31921;BMP280;66485;52.128;4.436;2023-02-28T10:55:55;103338.19;;;18.46
31921;BMP280;66485;52.128;4.436;2023-02-28T10:58:26;103332.78;;;18.46
31921;BMP280;66485;52.128;4.436;2023-02-28T11:00:52;103332.78;;;18.46
31921;BMP280;66485;52.128;4.436;2023-02-28T11:03:35;103316.13;;;18.48
31921;BMP280;66485;52.128;4.436;2023-02-28T11:06:15;103328.13;;;18.47
31921;BMP280;66485;52.128;4.436;2023-02-28T11:08:50;103328.13;;;18.47
31921;BMP280;66485;52.128;4.436;2023-02-28T11:11:18;103325.22;;;18.55
31921;BMP280;66485;52.128;4.436;2023-02-28T11:13:45;103320.53;;;18.72
31921;BMP280;66485;52.128;4.436;2023-02-28T11:16:13;103317.34;;;18.85
31921;BMP280;66485;52.128;4.436;2023-02-28T11:18:54;103311.19;;;19.08
31921;BMP280;66485;52.128;4.436;2023-02-28T11:21:29;103307.91;;;19.41
31921;BMP280;66485;52.128;4.436;2023-02-28T11:24:02;103307.91;;;19.41
31921;BMP280;66485;52.128;4.436;2023-02-28T11:26:37;103316.28;;;19.78
31921;BMP280;66485;52.128;4.436;2023-02-28T11:29:11;103293.91;;;19.88
31921;BMP280;66485;52.128;4.436;2023-02-28T11:31:36;103301.50;;;20.01
31921;BMP280;66485;52.128;4.436;2023-02-28T11:34:23;103307.88;;;20.13
31921;BMP280;66485;52.128;4.436;2023-02-28T11:36:49;103301.38;;;20.21
31921;BMP280;66485;52.128;4.436;2023-02-28T11:39:15;103301.38;;;20.21
31921;BMP280;66485;52.128;4.436;2023-02-28T11:47:57;103305.91;;;20.36
31921;BMP280;66485;52.128;4.436;2023-02-28T11:55:47;103298.91;;;20.68
31921;BMP280;66485;52.128;4.436;2023-02-28T11:58:49;103295.06;;;20.76
31921;BMP280;66485;52.128;4.436;2023-02-28T12:01:38;103292.59;;;20.64
31921;BMP280;66485;52.128;4.436;2023-02-28T12:06:57;103283.88;;;20.48
31921;BMP280;66485;52.128;4.436;2023-02-28T12:12:01;103280.28;;;20.40
31921;BMP280;66485;52.128;4.436;2023-02-28T12:28:03;103272.19;;;20.18
31921;BMP280;66485;52.128;4.436;2023-02-28T12:30:31;103272.34;;;20.58
31921;BMP280;66485;52.128;4.436;2023-02-28T12:33:04;103265.78;;;20.66
31921;BMP280;66485;52.128;4.436;2023-02-28T12:35:37;103269.00;;;20.75
31921;BMP280;66485;52.128;4.436;2023-02-28T12:38:14;103269.00;;;20.75
31921;BMP280;66485;52.128;4.436;2023-02-28T12:41:04;103260.09;;;20.78
31921;BMP280;66485;52.128;4.436;2023-02-28T12:43:36;103260.09;;;20.78
31921;BMP280;66485;52.128;4.436;2023-02-28T12:46:11;103262.16;;;20.92
31921;BMP280;66485;52.128;4.436;2023-02-28T12:48:42;103262.16;;;20.92
31921;BMP280;66485;52.128;4.436;2023-02-28T12:51:08;103255.97;;;20.95
31921;BMP280;66485;52.128;4.436;2023-02-28T12:57:27;103256.78;;;20.99
31921;BMP280;66485;52.128;4.436;2023-02-28T13:07:40;103245.66;;;21.15
31921;BMP280;66485;52.128;4.436;2023-02-28T13:10:12;103241.78;;;21.16
31921;BMP280;66485;52.128;4.436;2023-02-28T13:12:47;103241.84;;;21.23
31921;BMP280;66485;52.128;4.436;2023-02-28T13:15:20;103240.22;;;21.22
31921;BMP280;66485;52.128;4.436;2023-02-28T13:17:51;103234.81;;;21.25
31921;BMP280;66485;52.128;4.436;2023-02-28T13:20:19;103233.66;;;21.26
31921;BMP280;66485;52.128;4.436;2023-02-28T13:22:48;103229.00;;;21.27
31921;BMP280;66485;52.128;4.436;2023-02-28T13:27:57;103218.50;;;21.33
31921;BMP280;66485;52.128;4.436;2023-02-28T13:34:20;103227.16;;;21.42
31921;BMP280;66485;52.128;4.436;2023-02-28T13:36:28;103214.66;;;21.41
31921;BMP280;66485;52.128;4.436;2023-02-28T13:39:11;103212.00;;;21.44
31921;BMP280;66485;52.128;4.436;2023-02-28T13:41:48;103208.50;;;21.47
31921;BMP280;66485;52.128;4.436;2023-02-28T13:44:18;103213.97;;;21.51
31921;BMP280;66485;52.128;4.436;2023-02-28T13:49:25;103207.38;;;21.52
31921;BMP280;66485;52.128;4.436;2023-02-28T14:05:19;103193.44;;;21.67
31921;BMP280;66485;52.128;4.436;2023-02-28T14:07:52;103182.53;;;21.67
31921;BMP280;66485;52.128;4.436;2023-02-28T14:17:56;103186.03;;;21.72
31921;BMP280;66485;52.128;4.436;2023-02-28T14:20:24;103179.84;;;21.82
31921;BMP280;66485;52.128;4.436;2023-02-28T14:25:59;103178.38;;;21.98
31921;BMP280;66485;52.128;4.436;2023-02-28T14:31:35;103176.91;;;22.40
31921;BMP280;66485;52.128;4.436;2023-02-28T14:36:46;103182.78;;;22.49
31921;BMP280;66485;52.128;4.436;2023-02-28T14:39:15;103171.88;;;22.52
31921;BMP280;66485;52.128;4.436;2023-02-28T14:41:42;103174.59;;;22.56
31921;BMP280;66485;52.128;4.436;2023-02-28T14:46:50;103174.22;;;22.72
31921;BMP280;66485;52.128;4.436;2023-02-28T14:49:27;103174.22;;;22.72
31921;BMP280;66485;52.128;4.436;2023-02-28T14:52:15;103175.03;;;22.76
31921;BMP280;66485;52.128;4.436;2023-02-28T14:54:43;103175.03;;;22.76
31921;BMP280;66485;52.128;4.436;2023-02-28T15:00:00;103164.44;;;22.81
31921;BMP280;66485;52.128;4.436;2023-02-28T15:02:29;103165.22;;;22.89
31921;BMP280;66485;52.128;4.436;2023-02-28T15:05:00;103173.44;;;22.89
31921;BMP280;66485;52.128;4.436;2023-02-28T15:07:26;103176.56;;;22.63
31921;BMP280;66485;52.128;4.436;2023-02-28T15:10:13;103181.22;;;22.59
31921;BMP280;66485;52.128;4.436;2023-02-28T15:12:41;103181.22;;;22.59
31921;BMP280;66485;52.128;4.436;2023-02-28T15:15:16;103182.41;;;22.58
31921;BMP280;66485;52.128;4.436;2023-02-28T15:17:45;103182.38;;;22.50
31921;BMP280;66485;52.128;4.436;2023-02-28T15:20:12;103171.84;;;22.49
31921;BMP280;66485;52.128;4.436;2023-02-28T15:22:38;103171.84;;;22.49
31921;BMP280;66485;52.128;4.436;2023-02-28T15:25:05;103169.50;;;22.44
31921;BMP280;66485;52.128;4.436;2023-02-28T15:27:33;103169.50;;;22.44
31921;BMP280;66485;52.128;4.436;2023-02-28T15:30:15;103168.34;;;22.41
31921;BMP280;66485;52.128;4.436;2023-02-28T15:32:41;103169.50;;;22.44
31921;BMP280;66485;52.128;4.436;2023-02-28T15:35:29;103176.13;;;22.39
31921;BMP280;66485;52.128;4.436;2023-02-28T15:37:57;103177.28;;;22.35
31921;BMP280;66485;52.128;4.436;2023-02-28T15:40:26;103174.16;;;22.36
31921;BMP280;66485;52.128;4.436;2023-02-28T15:45:39;103181.59;;;22.32
31921;BMP280;66485;52.128;4.436;2023-02-28T15:48:15;103181.59;;;22.32
31921;BMP280;66485;52.128;4.436;2023-02-28T15:50:41;103173.00;;;22.34
31921;BMP280;66485;52.128;4.436;2023-02-28T15:53:19;103173.03;;;22.41
31921;BMP280;66485;52.128;4.436;2023-02-28T15:55:52;103173.41;;;22.43
31921;BMP280;66485;52.128;4.436;2023-02-28T15:58:18;103164.41;;;22.35
31921;BMP280;66485;52.128;4.436;2023-02-28T16:01:00;103167.56;;;22.34
31921;BMP280;66485;52.128;4.436;2023-02-28T16:03:27;103163.22;;;22.29
31921;BMP280;66485;52.128;4.436;2023-02-28T16:08:55;103178.84;;;22.25
31921;BMP280;66485;52.128;4.436;2023-02-28T16:11:21;103178.84;;;22.25
31921;BMP280;66485;52.128;4.436;2023-02-28T16:13:47;103169.47;;;22.19
31921;BMP280;66485;52.128;4.436;2023-02-28T16:16:18;103161.66;;;22.18
31921;BMP280;66485;52.128;4.436;2023-02-28T16:18:44;103165.53;;;22.17
31921;BMP280;66485;52.128;4.436;2023-02-28T16:21:09;103167.09;;;22.07
31921;BMP280;66485;52.128;4.436;2023-02-28T16:23:34;103166.31;;;22.06
31921;BMP280;66485;52.128;4.436;2023-02-28T16:26:00;103163.94;;;22.01
31921;BMP280;66485;52.128;4.436;2023-02-28T16:28:32;103169.03;;;22.03
31921;BMP280;66485;52.128;4.436;2023-02-28T16:31:00;103166.69;;;21.98
31921;BMP280;66485;52.128;4.436;2023-02-28T16:33:27;103167.03;;;21.96
31921;BMP280;66485;52.128;4.436;2023-02-28T16:35:52;103167.03;;;21.96
31921;BMP280;66485;52.128;4.436;2023-02-28T16:38:18;103172.44;;;21.86
31921;BMP280;66485;52.128;4.436;2023-02-28T16:40:44;103183.34;;;21.82
31921;BMP280;66485;52.128;4.436;2023-02-28T16:43:18;103171.63;;;21.71
31921;BMP280;66485;52.128;4.436;2023-02-28T16:45:44;103171.59;;;21.64
31921;BMP280;66485;52.128;4.436;2023-02-28T16:48:16;103179.34;;;21.58